createdAt,value
2022-11-07T00:01:46.211Z,100645.03
2022-11-07T00:04:13.836Z,100652.47
2022-11-07T00:06:41.158Z,100648.69
2022-11-07T00:09:08.488Z,100645.78
2022-11-07T00:11:35.743Z,100646.09
2022-11-07T00:14:03.028Z,100652.59
2022-11-07T00:16:30.640Z,100645.97
2022-11-07T00:18:57.885Z,100651.84
2022-11-07T00:21:25.179Z,100646.94
2022-11-07T00:23:52.427Z,100653.50
2022-11-07T00:26:20.673Z,100659.25
2022-11-07T00:28:48.082Z,100662.28
2022-11-07T00:31:16.505Z,100648.44
2022-11-07T00:33:44.383Z,100650.94
2022-11-07T00:36:20.131Z,100658.03
2022-11-07T00:38:47.396Z,100649.63
2022-11-07T00:41:15.271Z,100658.03
2022-11-07T00:43:42.595Z,100661.47
2022-11-07T00:46:11.583Z,100663.97
2022-11-07T00:48:39.205Z,100649.91
2022-11-07T00:51:12.528Z,100649.84
2022-11-07T00:53:40.140Z,100651.69
2022-11-07T00:56:09.932Z,100644.38
2022-11-07T00:58:37.712Z,100652.88
2022-11-07T01:01:26.999Z,100648.16
2022-11-07T01:04:13.027Z,100635.47
2022-11-07T01:06:42.777Z,100645.59
2022-11-07T01:09:12.055Z,100647.63
2022-11-07T01:11:40.003Z,100643.75
2022-11-07T01:14:08.177Z,100650.06
2022-11-07T01:16:35.592Z,100645.81
2022-11-07T01:19:04.049Z,100656.00
2022-11-07T01:21:31.393Z,100662.28
2022-11-07T01:24:00.166Z,100661.06
2022-11-07T01:26:27.567Z,100649.78
2022-11-07T01:28:54.925Z,100652.34
2022-11-07T01:31:22.153Z,100664.72
2022-11-07T01:33:49.349Z,100663.03
2022-11-07T01:36:18.155Z,100652.47
2022-11-07T01:38:48.484Z,100655.53
2022-11-07T01:41:21.659Z,100650.88
2022-11-07T01:43:55.107Z,100665.69
2022-11-07T01:46:26.355Z,100673.97
2022-11-07T01:48:58.317Z,100667.81
2022-11-07T01:51:26.598Z,100675.78
2022-11-07T01:53:54.793Z,100670.47
2022-11-07T01:56:24.904Z,100685.47
2022-11-07T01:58:52.448Z,100679.94
2022-11-07T02:01:20.139Z,100680.59
2022-11-07T02:03:47.762Z,100671.69
2022-11-07T02:06:20.317Z,100680.78
2022-11-07T02:08:48.816Z,100676.53
2022-11-07T02:11:16.415Z,100671.56
2022-11-07T02:13:43.669Z,100680.25
2022-11-07T02:16:11.079Z,100689.50
2022-11-07T02:18:40.246Z,100688.09
2022-11-07T02:21:14.424Z,100685.84
2022-11-07T02:23:50.057Z,100680.72
2022-11-07T02:26:17.547Z,100678.03
2022-11-07T02:28:46.441Z,100690.31
2022-11-07T02:31:13.779Z,100692.81
2022-11-07T02:33:41.863Z,100697.63
2022-11-07T02:36:14.565Z,100695.78
2022-11-07T02:38:42.236Z,100692.22
2022-11-07T02:41:12.653Z,100698.28
2022-11-07T02:43:43.253Z,100699.38
2022-11-07T02:46:11.955Z,100688.38
2022-11-07T02:48:51.246Z,100682.09
2022-11-07T02:51:18.521Z,100684.03
2022-11-07T02:53:46.660Z,100669.38
2022-11-07T02:56:13.939Z,100665.13
2022-11-07T02:58:41.447Z,100664.25
2022-11-07T03:01:09.140Z,100672.00
2022-11-07T03:03:44.409Z,100665.91
2022-11-07T03:06:14.186Z,100677.28
2022-11-07T03:08:41.873Z,100667.50
2022-11-07T03:11:09.836Z,100656.34
2022-11-07T03:13:37.484Z,100676.00
2022-11-07T03:16:06.782Z,100680.31
2022-11-07T03:18:34.953Z,100680.31
2022-11-07T03:21:02.888Z,100679.38
2022-11-07T03:23:30.560Z,100684.09
2022-11-07T03:25:57.850Z,100677.75
2022-11-07T03:28:25.156Z,100682.81
2022-11-07T03:30:52.759Z,100686.94
2022-11-07T03:33:20.021Z,100699.25
2022-11-07T03:35:47.321Z,100699.69
2022-11-07T03:38:14.629Z,100691.81
2022-11-07T03:40:41.967Z,100686.75
2022-11-07T03:43:09.234Z,100685.06
2022-11-07T03:45:36.459Z,100683.44
2022-11-07T03:48:03.816Z,100669.91
2022-11-07T03:50:31.048Z,100679.25
2022-11-07T03:52:58.240Z,100681.03
2022-11-07T03:55:25.555Z,100674.38
2022-11-07T03:57:52.795Z,100666.88
2022-11-07T04:00:20.339Z,100674.88
2022-11-07T04:02:47.819Z,100674.38
2022-11-07T04:05:15.203Z,100671.97
2022-11-07T04:07:42.499Z,100668.72
2022-11-07T04:10:09.902Z,100668.59
2022-11-07T04:12:55.672Z,100671.81
2022-11-07T04:15:41.679Z,100658.63
2022-11-07T04:18:08.970Z,100669.78
2022-11-07T04:20:36.316Z,100658.13
2022-11-07T04:23:03.557Z,100657.03
2022-11-07T04:25:49.434Z,100663.91
2022-11-07T04:28:17.870Z,100663.97
2022-11-07T04:30:45.287Z,100674.19
2022-11-07T04:33:12.874Z,100675.25
2022-11-07T04:35:40.226Z,100674.97
2022-11-07T04:38:07.493Z,100679.53
2022-11-07T04:40:34.708Z,100679.38
2022-11-07T04:43:08.851Z,100680.53
2022-11-07T04:45:37.294Z,100680.78
2022-11-07T04:48:05.296Z,100686.34
2022-11-07T04:50:32.599Z,100684.53
2022-11-07T04:53:00.033Z,100677.94
2022-11-07T04:55:30.708Z,100684.31
2022-11-07T04:57:58.479Z,100675.63
2022-11-07T05:00:25.909Z,100685.91
2022-11-07T05:02:53.407Z,100687.66
2022-11-07T05:05:20.735Z,100678.72
2022-11-07T05:07:48.102Z,100679.69
2022-11-07T05:10:22.673Z,100678.78
2022-11-07T05:12:50.129Z,100675.47
2022-11-07T05:15:18.255Z,100661.63
2022-11-07T05:17:46.123Z,100663.09
2022-11-07T05:20:22.478Z,100663.22
2022-11-07T05:23:08.145Z,100670.59
2022-11-07T05:25:35.479Z,100677.50
2022-11-07T05:28:02.734Z,100676.63
2022-11-07T05:30:29.933Z,100682.84
2022-11-07T05:32:57.184Z,100690.91
2022-11-07T05:35:24.525Z,100689.47
2022-11-07T05:37:51.772Z,100695.94
2022-11-07T05:40:19.135Z,100701.56
2022-11-07T05:42:46.293Z,100700.47
2022-11-07T05:45:13.567Z,100705.75
2022-11-07T05:47:41.133Z,100698.41
2022-11-07T05:50:08.785Z,100704.69
2022-11-07T05:52:36.086Z,100708.66
2022-11-07T05:55:03.552Z,100708.06
2022-11-07T05:57:31.255Z,100704.84
2022-11-07T05:59:58.582Z,100712.00
2022-11-07T06:02:25.938Z,100707.28
2022-11-07T06:04:53.328Z,100702.69
2022-11-07T06:07:20.603Z,100703.91
2022-11-07T06:09:48.842Z,100700.09
2022-11-07T06:12:16.187Z,100699.69
2022-11-07T06:14:43.951Z,100696.75
2022-11-07T06:17:11.241Z,100699.78
2022-11-07T06:19:38.619Z,100699.41
2022-11-07T06:22:05.861Z,100706.34
2022-11-07T06:24:33.262Z,100716.22
2022-11-07T06:27:01.379Z,100717.25
2022-11-07T06:29:28.669Z,100710.28
2022-11-07T06:31:56.004Z,100718.94
2022-11-07T06:34:23.270Z,100725.81
2022-11-07T06:37:02.501Z,100722.91
2022-11-07T06:39:30.407Z,100721.63
2022-11-07T06:41:57.630Z,100723.44
2022-11-07T06:44:24.863Z,100717.63
2022-11-07T06:46:52.114Z,100717.03
2022-11-07T06:49:19.392Z,100720.66
2022-11-07T06:51:48.056Z,100729.63
2022-11-07T06:54:15.542Z,100732.84
2022-11-07T06:56:42.947Z,100731.81
2022-11-07T06:59:10.347Z,100734.19
2022-11-07T07:01:37.792Z,100743.59
2022-11-07T07:04:05.579Z,100737.16
2022-11-07T07:06:32.870Z,100737.31
2022-11-07T07:09:00.129Z,100747.03
2022-11-07T07:11:27.522Z,100740.81
2022-11-07T07:14:01.147Z,100749.13
2022-11-07T07:16:29.484Z,100745.94
2022-11-07T07:18:56.909Z,100751.03
2022-11-07T07:21:24.142Z,100752.28
2022-11-07T07:23:51.509Z,100754.59
2022-11-07T07:26:18.837Z,100748.91
2022-11-07T07:28:46.371Z,100755.31
2022-11-07T07:31:13.495Z,100742.19
2022-11-07T07:33:44.196Z,100753.53
2022-11-07T07:36:16.510Z,100752.25
2022-11-07T07:38:47.242Z,100753.31
2022-11-07T07:41:14.619Z,100760.72
2022-11-07T07:43:41.949Z,100758.78
2022-11-07T07:46:10.474Z,100753.59
2022-11-07T07:48:37.750Z,100754.41
2022-11-07T07:51:05.224Z,100755.09
2022-11-07T07:53:32.439Z,100754.78
2022-11-07T07:56:00.461Z,100749.28
2022-11-07T07:58:27.831Z,100755.88
2022-11-07T08:00:58.746Z,100758.44
2022-11-07T08:03:29.395Z,100762.72
2022-11-07T08:06:02.773Z,100772.88
2022-11-07T08:08:35.276Z,100770.09
2022-11-07T08:11:07.054Z,100769.91
2022-11-07T08:13:34.575Z,100769.44
2022-11-07T08:16:03.848Z,100777.75
2022-11-07T08:18:31.239Z,100784.09
2022-11-07T08:20:58.913Z,100789.78
2022-11-07T08:23:26.136Z,100798.09
2022-11-07T08:25:55.725Z,100782.03
2022-11-07T08:28:26.998Z,100788.41
2022-11-07T08:31:08.226Z,100784.94
2022-11-07T08:33:36.241Z,100790.03
2022-11-07T08:36:05.212Z,100787.94
2022-11-07T08:38:33.898Z,100786.56
2022-11-07T08:41:01.541Z,100803.47
2022-11-07T08:43:28.809Z,100792.34
2022-11-07T08:45:56.285Z,100797.91
2022-11-07T08:48:23.866Z,100798.47
2022-11-07T08:50:52.781Z,100808.66
2022-11-07T08:53:20.563Z,100800.56
2022-11-07T08:55:48.241Z,100790.81
2022-11-07T08:58:16.082Z,100792.22
2022-11-07T09:00:43.717Z,100793.94
2022-11-07T09:06:01.855Z,100806.13
2022-11-07T09:08:29.246Z,100805.16
2022-11-07T09:11:01.081Z,100808.66
2022-11-07T09:13:28.463Z,100806.91
2022-11-07T09:15:59.710Z,100808.28
2022-11-07T09:18:29.122Z,100811.19
2022-11-07T09:21:00.631Z,100809.38
2022-11-07T09:23:28.160Z,100822.22
2022-11-07T09:25:58.708Z,100814.91
2022-11-07T09:28:25.953Z,100823.16
2022-11-07T09:30:54.478Z,100815.84
2022-11-07T09:33:22.689Z,100809.13
2022-11-07T09:35:50.579Z,100809.25
2022-11-07T09:38:18.107Z,100804.38
2022-11-07T09:41:05.365Z,100799.97
2022-11-07T09:43:44.201Z,100792.31
2022-11-07T09:46:23.703Z,100799.47
2022-11-07T09:48:56.081Z,100802.38
2022-11-07T09:51:38.755Z,100804.66
2022-11-07T09:54:10.801Z,100809.03
2022-11-07T09:56:41.303Z,100803.22
2022-11-07T09:59:16.338Z,100807.03
2022-11-07T10:01:43.754Z,100808.19
2022-11-07T10:04:24.671Z,100809.19
2022-11-07T10:07:07.031Z,100801.16
2022-11-07T10:09:52.519Z,100802.22
2022-11-07T10:12:50.485Z,100809.88
2022-11-07T10:15:36.537Z,100805.31
2022-11-07T10:18:09.625Z,100806.63
2022-11-07T10:21:22.972Z,100805.16
2022-11-07T10:24:25.646Z,100794.25
2022-11-07T10:26:53.207Z,100796.13
2022-11-07T10:29:22.149Z,100797.09
2022-11-07T10:32:12.476Z,100787.56
2022-11-07T10:35:24.510Z,100784.69
2022-11-07T10:37:56.247Z,100786.50
2022-11-07T10:40:24.329Z,100787.38
2022-11-07T10:42:53.077Z,100794.22
2022-11-07T10:45:20.483Z,100793.13
2022-11-07T10:48:02.931Z,100786.28
2022-11-07T10:50:30.638Z,100780.47
2022-11-07T10:53:03.754Z,100781.44
2022-11-07T10:55:42.722Z,100797.09
2022-11-07T10:58:19.255Z,100793.25
2022-11-07T11:01:04.119Z,100787.22
2022-11-07T11:03:44.935Z,100786.63
2022-11-07T11:06:19.318Z,100792.75
2022-11-07T11:08:49.575Z,100790.63
2022-11-07T11:11:21.804Z,100784.72
2022-11-07T11:13:49.581Z,100778.81
2022-11-07T11:16:22.776Z,100781.56
2022-11-07T11:18:51.815Z,100776.56
2022-11-07T11:21:19.160Z,100769.28
2022-11-07T11:23:46.814Z,100774.84
2022-11-07T11:26:30.737Z,100768.00
2022-11-07T11:29:04.703Z,100770.72
2022-11-07T11:31:52.092Z,100777.09
2022-11-07T11:34:54.793Z,100774.66
2022-11-07T11:37:23.985Z,100772.69
2022-11-07T11:40:02.464Z,100767.91
2022-11-07T11:42:54.902Z,100768.66
2022-11-07T11:45:48.876Z,100761.16
2022-11-07T11:48:29.108Z,100766.84
2022-11-07T11:50:57.372Z,100765.22
2022-11-07T11:53:24.590Z,100765.63
2022-11-07T11:56:06.915Z,100764.94
2022-11-07T11:58:56.170Z,100771.50
2022-11-07T12:01:37.722Z,100757.59
2022-11-07T12:04:37.537Z,100764.81
2022-11-07T12:07:38.922Z,100759.44
2022-11-07T12:10:47.731Z,100757.03
2022-11-07T12:13:22.437Z,100756.41
2022-11-07T12:16:08.461Z,100755.50
2022-11-07T12:18:57.361Z,100747.22
2022-11-07T12:21:38.723Z,100755.31
2022-11-07T12:24:24.662Z,100753.09
2022-11-07T12:27:00.963Z,100743.56
2022-11-07T12:29:40.536Z,100743.44
2022-11-07T12:32:39.009Z,100738.94
2022-11-07T12:35:18.493Z,100739.78
2022-11-07T12:38:16.643Z,100729.06
2022-11-07T12:41:12.928Z,100735.72
2022-11-07T12:44:04.941Z,100729.78
2022-11-07T12:46:57.048Z,100727.94
2022-11-07T12:49:57.721Z,100727.94
2022-11-07T12:52:34.433Z,100736.69
2022-11-07T12:55:08.272Z,100727.31
2022-11-07T12:57:38.410Z,100738.53
2022-11-07T13:00:17.602Z,100733.13
2022-11-07T13:03:21.222Z,100718.00
2022-11-07T13:06:13.665Z,100729.25
2022-11-07T13:08:50.528Z,100730.53
2022-11-07T13:11:31.967Z,100727.78
2022-11-07T13:14:01.492Z,100733.31
2022-11-07T13:16:31.521Z,100722.00
2022-11-07T13:19:21.194Z,100719.50
2022-11-07T13:22:18.371Z,100725.53
2022-11-07T13:25:09.388Z,100723.00
2022-11-07T13:27:41.490Z,100720.03
2022-11-07T13:30:17.386Z,100722.69
2022-11-07T13:32:49.854Z,100713.47
2022-11-07T13:35:23.078Z,100721.94
2022-11-07T13:37:56.959Z,100709.91
2022-11-07T13:40:35.153Z,100706.19
2022-11-07T13:43:12.647Z,100709.25
2022-11-07T13:45:45.972Z,100702.16
2022-11-07T13:48:18.619Z,100701.34
2022-11-07T13:50:53.451Z,100705.25
2022-11-07T13:53:29.919Z,100704.91
2022-11-07T13:56:10.489Z,100696.88
2022-11-07T13:58:39.460Z,100699.50
2022-11-07T14:01:11.524Z,100695.63
2022-11-07T14:03:39.487Z,100685.09
2022-11-07T14:06:07.391Z,100684.88
2022-11-07T14:08:38.313Z,100688.41
2022-11-07T14:11:15.558Z,100688.75
2022-11-07T14:13:42.858Z,100685.13
2022-11-07T14:16:24.652Z,100689.88
2022-11-07T14:18:54.370Z,100681.84
2022-11-07T14:21:35.850Z,100678.13
2022-11-07T14:24:04.232Z,100682.88
2022-11-07T14:26:37.854Z,100683.53
2022-11-07T14:29:09.043Z,100684.50
2022-11-07T14:31:38.202Z,100684.09
2022-11-07T14:34:18.262Z,100679.75
2022-11-07T14:36:56.397Z,100675.00
2022-11-07T14:39:25.701Z,100676.44
2022-11-07T14:41:55.201Z,100677.97
2022-11-07T14:44:53.325Z,100674.00
2022-11-07T14:47:28.227Z,100683.19
2022-11-07T14:49:56.184Z,100685.41
2022-11-07T14:52:27.752Z,100681.38
2022-11-07T14:55:01.196Z,100679.22
2022-11-07T14:57:28.629Z,100678.97
2022-11-07T14:59:56.127Z,100681.13
2022-11-07T15:02:31.507Z,100678.28
2022-11-07T15:05:09.592Z,100678.00
2022-11-07T15:07:47.148Z,100686.25
2022-11-07T15:10:24.724Z,100683.38
2022-11-07T15:12:54.802Z,100683.63
2022-11-07T15:15:26.366Z,100686.25
2022-11-07T15:17:56.244Z,100676.53
2022-11-07T15:20:36.004Z,100675.81
2022-11-07T15:23:13.006Z,100669.38
2022-11-07T15:26:03.038Z,100678.97
2022-11-07T15:28:43.456Z,100674.31
2022-11-07T15:31:30.265Z,100667.75
2022-11-07T15:33:58.758Z,100673.03
2022-11-07T15:36:26.109Z,100666.78
2022-11-07T15:38:54.144Z,100672.72
2022-11-07T15:41:21.375Z,100671.97
2022-11-07T15:43:48.883Z,100672.50
2022-11-07T15:46:26.793Z,100671.34
2022-11-07T15:48:54.406Z,100671.16
2022-11-07T15:51:35.986Z,100675.38
2022-11-07T15:54:03.423Z,100675.28
2022-11-07T15:56:30.746Z,100676.19
2022-11-07T15:58:59.365Z,100674.38
2022-11-07T16:01:26.868Z,100673.13
2022-11-07T16:03:55.381Z,100674.56
2022-11-07T16:06:33.681Z,100680.75
2022-11-07T16:09:01.246Z,100676.72
2022-11-07T16:11:28.566Z,100675.19
2022-11-07T16:14:14.761Z,100681.09
2022-11-07T16:16:44.720Z,100676.72
2022-11-07T16:19:30.648Z,100683.69
2022-11-07T16:21:57.885Z,100681.09
2022-11-07T16:24:25.140Z,100684.53
2022-11-07T16:26:52.469Z,100683.78
2022-11-07T16:29:26.567Z,100690.81
2022-11-07T16:31:53.802Z,100686.56
2022-11-07T16:34:21.288Z,100686.84
2022-11-07T16:36:48.872Z,100674.81
2022-11-07T16:39:21.482Z,100677.59
2022-11-07T16:41:49.030Z,100677.78
2022-11-07T16:44:20.405Z,100679.69
2022-11-07T16:46:50.744Z,100674.81
2022-11-07T16:49:30.647Z,100684.44
2022-11-07T16:51:58.639Z,100677.69
2022-11-07T16:54:25.974Z,100687.03
2022-11-07T16:56:57.277Z,100679.69
2022-11-07T16:59:24.700Z,100676.44
2022-11-07T17:01:52.454Z,100680.72
2022-11-07T17:04:19.928Z,100680.63
2022-11-07T17:06:47.634Z,100685.84
2022-11-07T17:09:20.580Z,100682.81
2022-11-07T17:11:47.805Z,100679.69
2022-11-07T17:14:15.080Z,100691.34
2022-11-07T17:16:44.366Z,100688.72
2022-11-07T17:19:12.912Z,100679.84
2022-11-07T17:21:46.148Z,100682.91
2022-11-07T17:24:13.920Z,100691.69
2022-11-07T17:26:41.271Z,100689.28
2022-11-07T17:29:12.197Z,100688.28
2022-11-07T17:31:40.440Z,100681.28
2022-11-07T17:34:08.079Z,100688.22
2022-11-07T17:36:46.456Z,100689.56
2022-11-07T17:39:19.419Z,100689.28
2022-11-07T17:41:48.972Z,100688.56
2022-11-07T17:44:17.682Z,100675.53
2022-11-07T17:46:47.112Z,100683.16
2022-11-07T17:49:17.601Z,100691.69
2022-11-07T17:51:45.227Z,100684.78
2022-11-07T17:54:13.964Z,100684.13
2022-11-07T17:56:41.878Z,100681.53
2022-11-07T17:59:13.079Z,100679.38
2022-11-07T18:01:41.053Z,100678.44
2022-11-07T18:04:10.033Z,100674.28
2022-11-07T18:06:40.520Z,100683.03
2022-11-07T18:09:11.323Z,100684.34
2022-11-07T18:11:38.752Z,100680.97
2022-11-07T18:14:05.998Z,100673.56
2022-11-07T18:16:34.661Z,100673.56
2022-11-07T18:19:02.655Z,100676.34
2022-11-07T18:21:29.995Z,100679.28
2022-11-07T18:23:57.924Z,100676.50
2022-11-07T18:26:30.858Z,100683.72
2022-11-07T18:29:04.017Z,100682.16
2022-11-07T18:31:31.569Z,100681.59
2022-11-07T18:34:01.071Z,100682.16
2022-11-07T18:36:30.748Z,100679.53
2022-11-07T18:39:04.941Z,100679.72
2022-11-07T18:41:32.388Z,100673.81
2022-11-07T18:44:04.507Z,100676.25
2022-11-07T18:46:32.663Z,100689.69
2022-11-07T18:49:00.092Z,100682.97
2022-11-07T18:51:27.671Z,100681.81
2022-11-07T18:53:55.198Z,100675.88
2022-11-07T18:56:22.451Z,100669.34
2022-11-07T18:58:49.943Z,100671.50
2022-11-07T19:01:19.555Z,100676.09
2022-11-07T19:03:47.191Z,100672.50
2022-11-07T19:06:18.734Z,100668.19
2022-11-07T19:08:50.305Z,100665.22
2022-11-07T19:11:20.179Z,100659.91
2022-11-07T19:13:47.751Z,100666.28
2022-11-07T19:16:17.143Z,100663.44
2022-11-07T19:18:49.088Z,100657.16
2022-11-07T19:21:27.722Z,100659.69
2022-11-07T19:23:55.156Z,100647.81
2022-11-07T19:26:22.771Z,100654.75
2022-11-07T19:28:50.549Z,100651.69
2022-11-07T19:31:17.803Z,100649.06
2022-11-07T19:33:45.382Z,100652.28
2022-11-07T19:36:15.375Z,100654.50
2022-11-07T19:38:43.184Z,100644.19
2022-11-07T19:41:11.219Z,100642.03
2022-11-07T19:43:39.977Z,100642.03
2022-11-07T19:46:13.173Z,100645.81
2022-11-07T19:48:40.485Z,100639.31
2022-11-07T19:51:09.377Z,100644.56
2022-11-07T19:53:36.869Z,100638.78
2022-11-07T19:56:09.124Z,100641.09
2022-11-07T19:58:37.539Z,100644.13
2022-11-07T20:01:16.877Z,100639.59
2022-11-07T20:03:45.509Z,100634.66
2022-11-07T20:06:14.234Z,100640.91
2022-11-07T20:08:43.397Z,100642.16
2022-11-07T20:11:13.964Z,100634.03
2022-11-07T20:13:41.871Z,100632.75
2022-11-07T20:16:09.600Z,100627.66
2022-11-07T20:18:37.874Z,100626.06
2022-11-07T20:21:12.806Z,100622.13
2022-11-07T20:23:41.713Z,100629.81
2022-11-07T20:26:11.113Z,100626.69
2022-11-07T20:28:38.823Z,100617.59
2022-11-07T20:31:18.830Z,100607.34
2022-11-07T20:33:46.358Z,100611.34
2022-11-07T20:36:14.950Z,100600.34
2022-11-07T20:38:43.802Z,100596.19
2022-11-07T20:41:12.493Z,100581.09
2022-11-07T20:43:39.938Z,100577.97
2022-11-07T20:46:09.987Z,100575.06
2022-11-07T20:48:37.998Z,100578.78
2022-11-07T20:51:10.736Z,100578.06
2022-11-07T20:53:38.840Z,100575.78
2022-11-07T20:56:06.988Z,100584.78
2022-11-07T20:58:36.039Z,100579.13
2022-11-07T21:01:04.525Z,100586.16
2022-11-07T21:03:33.242Z,100579.25
2022-11-07T21:06:01.080Z,100581.31
2022-11-07T21:08:31.859Z,100585.09
2022-11-07T21:11:01.835Z,100580.22
2022-11-07T21:13:32.344Z,100585.31
2022-11-07T21:16:02.492Z,100585.53
2022-11-07T21:18:29.892Z,100578.50
2022-11-07T21:21:11.605Z,100572.72
2022-11-07T21:23:39.489Z,100570.31
2022-11-07T21:26:11.005Z,100568.91
2022-11-07T21:28:40.553Z,100559.78
2022-11-07T21:31:10.818Z,100559.81
2022-11-07T21:33:39.022Z,100562.34
2022-11-07T21:36:19.831Z,100566.50
2022-11-07T21:38:50.586Z,100558.66
2022-11-07T21:41:18.007Z,100562.13
2022-11-07T21:43:45.497Z,100564.47
2022-11-07T21:46:15.192Z,100571.41
2022-11-07T21:48:43.150Z,100555.56
2022-11-07T21:51:15.237Z,100559.66
2022-11-07T21:53:42.673Z,100559.66
2022-11-07T21:56:17.686Z,100553.75
2022-11-07T21:58:45.126Z,100546.19
2022-11-07T22:01:12.429Z,100544.97
2022-11-07T22:04:10.682Z,100539.34
2022-11-07T22:06:26.904Z,100534.47
2022-11-07T22:08:54.164Z,100533.47
2022-11-07T22:11:21.557Z,100534.22
2022-11-07T22:13:49.089Z,100520.63
2022-11-07T22:16:21.036Z,100516.66
2022-11-07T22:18:49.262Z,100517.97
2022-11-07T22:21:19.433Z,100508.06
2022-11-07T22:23:46.768Z,100501.69
2022-11-07T22:26:17.504Z,100495.81
2022-11-07T22:28:46.287Z,100506.75
2022-11-07T22:31:20.440Z,100508.16
2022-11-07T22:33:47.971Z,100514.84
2022-11-07T22:36:15.560Z,100493.72
2022-11-07T22:38:43.177Z,100505.28
2022-11-07T22:41:16.087Z,100491.63
2022-11-07T22:43:43.387Z,100487.59
2022-11-07T22:46:13.268Z,100493.81
2022-11-07T22:48:41.415Z,100485.50
2022-11-07T22:51:20.120Z,100473.28
2022-11-07T22:53:47.719Z,100474.13
2022-11-07T22:56:19.905Z,100470.47
2022-11-07T22:58:47.746Z,100463.72
2022-11-07T23:01:20.557Z,100454.31
2022-11-07T23:03:48.488Z,100461.03
2022-11-07T23:06:16.650Z,100465.16
2022-11-07T23:08:44.414Z,100449.38
2022-11-07T23:14:13.130Z,100449.16
2022-11-07T23:16:44.073Z,100450.97
2022-11-07T23:19:14.161Z,100447.22
2022-11-07T23:21:41.824Z,100441.03
2022-11-07T23:24:09.655Z,100437.56
2022-11-07T23:26:37.346Z,100441.81
2022-11-07T23:29:10.763Z,100428.28
2022-11-07T23:31:44.374Z,100430.28
2022-11-07T23:34:12.446Z,100426.09
2022-11-07T23:36:44.274Z,100429.94
2022-11-07T23:39:15.132Z,100431.31
2022-11-07T23:41:42.919Z,100420.84
2022-11-07T23:44:10.759Z,100420.13
2022-11-07T23:46:56.995Z,100416.25
2022-11-07T23:49:42.790Z,100415.31
2022-11-07T23:52:10.030Z,100402.63
2022-11-07T23:54:56.196Z,100394.94
2022-11-07T23:57:23.478Z,100399.84
